Meath Environmental Platform

Observations for Trim Market St

Time AQI Temp °C Hum % Pres Pa CO μg/m³ H₂S μg/m³ NO μg/m³ NO₂ μg/m³ O₃ μg/m³ SO₂ μg/m³ PM1 μg/m³ PM2.5 μg/m³ PM10 μg/m³
Sunday 12 July 2026
00:13 1 20.2 73 45,447 0.14 0 0.41 2.2 9.6 0 6.41 7.24 10.57
00:12 1 20.2 73 45,518 0 0 0 10 17.83 0 4.99 7.24 10.57
00:11 1 20.2 73 45,670 0 0 0 0.9 5.76 0 5.7 8.69 13.61
00:10 1 20.2 73 45,727 0 0 0 6.9 16.18 0 3.56 6.28 9.96
00:09 1 20.3 73 46,010 0 0 0 5.29 6.58 0 5.7 8.69 12.4
00:07 1 20.3 73 46,281 0 0 0 6.59 10.95 0 5.7 7.73 11.18
Saturday 11 July 2026
23:58 1 20.5 72 48,039 0.06 0 0 7.09 9.76 0 4.28 5.83 9.98
23:57 1 20.5 72 48,178 0.08 0 0 3.49 8.78 0 5.7 8.73 12.43
23:55 1 20.5 72 48,541 0 0 0 6.5 9.07 0 4.99 5.84 9.37
23:52 1 20.5 72 48,975 0 0 0 3.72 8.12 0 4.99 6.81 11.21
23:50 1 20.5 72 49,339 0 0 0 5.04 15.4 0 3.56 4.4 6.92
23:49 1 20.5 72 49,408 0 0 0 9.15 9.52 0 4.28 6.83 9.99
23:48 1 20.6 72 49,549 0.14 0 0 5.02 8.16 0 4.28 4.89 7.53
23:47 1 20.6 72 49,664 0.5 0 1.17 12.42 7.72 0 4.99 7.31 10.6
23:46 1 20.6 72 49,817 0.19 0 0 10.33 8.6 0 4.99 7.8 11.22
23:45 1 20.6 72 49,895 0.04 0 0 5.63 16.15 0 4.99 7.31 11.22
23:44 1 20.6 72 49,923 0.05 0 0 6.73 3.23 0 4.99 6.83 9.99
23:41 1 20.6 72 50,226 0 0 0 9.24 14.26 0 4.99 8.29 12.46
23:39 1 20.7 72 50,666 0.67 3.1 32.97 13.73 0 6.69 7.84 9.26 14.31
23:34 1 20.7 72 50,985 0.02 0 0 4.64 8.88 0 4.99 7.33 11.23